Time;durP1;ratioP1;P1;durP2;ratioP2;P2;SDS_P1;SDS_P2;PMS_P1;PMS_P2;Temp;Humidity;BMP_temperature;BMP_pressure;BME280_temperature;BME280_humidity;BME280_pressure;Samples;Min_cycle;Max_cycle;Signal;HPM_P1;HPM_P2
2022/12/29 00:01:45;;;;;;;;;;;;;;;;;;5042798;28;19925;-81
2022/12/29 00:04:18;;;;;;;;;;;;;;;;;;5046896;28;19925;-81
2022/12/29 00:06:50;;;;;;;;;;;;;;;;;;5077975;28;19924;-80
2022/12/29 00:09:18;;;;;;;;;;;;;;;;;;5047416;28;19929;-80
2022/12/29 00:11:45;;;;;;;;;;;;;;;;;;5046921;28;20293;-80
2022/12/29 00:17:03;;;;;;;;;;;;;;;;;;5045335;28;19925;-81
2022/12/29 00:36:21;;;;;;;;;;;;;;;;;;5042228;28;19925;-81
2022/12/29 00:44:25;;;;;;;;;;;;;;;;;;5042275;28;19921;-80
2022/12/29 00:47:02;;;;;;;;;;;;;;;;;;5060433;28;19928;-81
2022/12/29 00:49:33;;;;;;;;;;;;;;;;;;5058805;28;19925;-81
2022/12/29 00:52:06;;;;;;;;;;;;;;;;;;5041162;28;20356;-80
2022/12/29 00:54:38;;;;;;;;;;;;;;;;;;5045608;28;19936;-80
2022/12/29 00:57:12;;;;;;;;;;;;;;;;;;5044833;28;19940;-81
2022/12/29 00:59:45;;;;;;;;;;;;;;;;;;5040677;28;19921;-81
2022/12/29 01:02:12;;;;;;;;;;;;;;;;;;5046825;28;19921;-81
2022/12/29 01:04:40;;;;;;;;;;;;;;;;;;5035595;28;20368;-81
2022/12/29 01:07:12;;;;;;;;;;;;;;;;;;5041563;28;20424;-81
2022/12/29 01:15:08;;;;;;;;;;;;;;;;;;5043882;28;20412;-82
2022/12/29 01:17:41;;;;;;;;;;;;;;;;;;5074927;28;19925;-80
2022/12/29 01:20:14;;;;;;;;;;;;;;;;;;5057083;28;19921;-81
2022/12/29 01:22:47;;;;;;;;;;;;;;;;;;5056429;28;19925;-81
2022/12/29 01:25:20;;;;;;;;;;;;;;;;;;5043445;28;20815;-81
2022/12/29 01:27:47;;;;;;;;;;;;;;;;;;5042401;28;19948;-80
2022/12/29 01:30:20;;;;;;;;;;;;;;;;;;5059552;28;19925;-80
2022/12/29 01:32:47;;;;;;;;;;;;;;;;;;5041388;28;19932;-80
2022/12/29 01:35:20;;;;;;;;;;;;;;;;;;5060618;28;20292;-80
2022/12/29 01:37:52;;;;;;;;;;;;;;;;;;5075513;28;19932;-80
2022/12/29 01:40:20;;;;;;;;;;;;;;;;;;5040555;28;19929;-80
2022/12/29 01:42:47;;;;;;;;;;;;;;;;;;5048079;28;19928;-81
2022/12/29 01:45:20;;;;;;;;;;;;;;;;;;5041570;28;19936;-81
2022/12/29 01:47:52;;;;;;;;;;;;;;;;;;5055905;28;19921;-80
2022/12/29 01:50:25;;;;;;;;;;;;;;;;;;5038946;28;20273;-80
2022/12/29 01:52:53;;;;;;;;;;;;;;;;;;5049667;28;19920;-80
2022/12/29 01:55:25;;;;;;;;;;;;;;;;;;5048902;28;19921;-80
2022/12/29 01:57:53;;;;;;;;;;;;;;;;;;5073069;28;19931;-80
2022/12/29 02:00:25;;;;;;;;;;;;;;;;;;5056615;28;19929;-80
2022/12/29 02:02:53;;;;;;;;;;;;;;;;;;5041995;28;19920;-81
2022/12/29 02:05:25;;;;;;;;;;;;;;;;;;5041987;28;19921;-80
2022/12/29 02:07:53;;;;;;;;;;;;;;;;;;5054606;28;19928;-80
2022/12/29 02:10:20;;;;;;;;;;;;;;;;;;5076590;28;19928;-81
2022/12/29 02:12:48;;;;;;;;;;;;;;;;;;5043490;28;19932;-80
2022/12/29 02:15:15;;;;;;;;;;;;;;;;;;5041409;28;19928;-80
2022/12/29 02:17:46;;;;;;;;;;;;;;;;;;5039601;28;20267;-80
2022/12/29 02:20:18;;;;;;;;;;;;;;;;;;5057345;28;19924;-81
2022/12/29 02:22:51;;;;;;;;;;;;;;;;;;5052151;28;19921;-79
2022/12/29 02:25:18;;;;;;;;;;;;;;;;;;5071908;28;19931;-81
2022/12/29 02:27:51;;;;;;;;;;;;;;;;;;5056915;28;19928;-81
2022/12/29 02:30:19;;;;;;;;;;;;;;;;;;5042149;28;20366;-80
2022/12/29 02:32:51;;;;;;;;;;;;;;;;;;5041359;28;20374;-81
2022/12/29 02:35:24;;;;;;;;;;;;;;;;;;5059073;28;19925;-81
2022/12/29 02:37:56;;;;;;;;;;;;;;;;;;5072683;28;19921;-81
2022/12/29 02:40:25;;;;;;;;;;;;;;;;;;5073785;28;19921;-81
2022/12/29 02:42:52;;;;;;;;;;;;;;;;;;5033611;28;20771;-81
2022/12/29 02:45:20;;;;;;;;;;;;;;;;;;5074245;28;19927;-80
2022/12/29 02:47:47;;;;;;;;;;;;;;;;;;5074264;28;20286;-81
2022/12/29 02:50:20;;;;;;;;;;;;;;;;;;5058846;28;20384;-81
2022/12/29 02:52:52;;;;;;;;;;;;;;;;;;5039465;28;19944;-80
2022/12/29 02:55:24;;;;;;;;;;;;;;;;;;5074311;28;19928;-80
2022/12/29 02:57:56;;;;;;;;;;;;;;;;;;5039633;28;19943;-80
2022/12/29 03:00:24;;;;;;;;;;;;;;;;;;5036957;28;19931;-80
2022/12/29 03:02:52;;;;;;;;;;;;;;;;;;5074721;28;19928;-81
2022/12/29 03:05:24;;;;;;;;;;;;;;;;;;5039468;28;19925;-80
2022/12/29 03:07:57;;;;;;;;;;;;;;;;;;5037322;28;20713;-80
2022/12/29 03:10:29;;;;;;;;;;;;;;;;;;5053887;28;19924;-81
2022/12/29 03:16:02;;;;;;;;;;;;;;;;;;5072128;28;20368;-81
2022/12/29 03:18:29;;;;;;;;;;;;;;;;;;5040029;28;19928;-80
2022/12/29 03:21:02;;;;;;;;;;;;;;;;;;5051995;28;19956;-81
2022/12/29 03:23:29;;;;;;;;;;;;;;;;;;5073665;28;19929;-81
2022/12/29 03:26:02;;;;;;;;;;;;;;;;;;5054550;28;19932;-81
2022/12/29 03:28:35;;;;;;;;;;;;;;;;;;5071326;28;19921;-81
2022/12/29 03:31:08;;;;;;;;;;;;;;;;;;5038604;28;20461;-81
2022/12/29 03:33:36;;;;;;;;;;;;;;;;;;5077189;28;19921;-80
2022/12/29 03:36:03;;;;;;;;;;;;;;;;;;5046610;28;19928;-80
2022/12/29 03:38:31;;;;;;;;;;;;;;;;;;5048035;28;19921;-81
2022/12/29 03:40:59;;;;;;;;;;;;;;;;;;5072573;28;19931;-80
2022/12/29 03:43:28;;;;;;;;;;;;;;;;;;5073582;28;19939;-80
2022/12/29 03:46:01;;;;;;;;;;;;;;;;;;5056403;28;19921;-80
2022/12/29 03:48:29;;;;;;;;;;;;;;;;;;5071186;28;19933;-80
2022/12/29 03:51:01;;;;;;;;;;;;;;;;;;5040576;28;19921;-81
2022/12/29 03:53:29;;;;;;;;;;;;;;;;;;5043910;28;19928;-81
2022/12/29 03:56:02;;;;;;;;;;;;;;;;;;5037760;28;19932;-81
2022/12/29 03:58:35;;;;;;;;;;;;;;;;;;5041221;28;19925;-81
2022/12/29 04:01:11;;;;;;;;;;;;;;;;;;5040793;28;19921;-80
2022/12/29 04:03:44;;;;;;;;;;;;;;;;;;5049008;28;20369;-81
2022/12/29 04:06:16;;;;;;;;;;;;;;;;;;5041169;28;19928;-80
2022/12/29 04:08:53;;;;;;;;;;;;;;;;;;5059289;28;19952;-81
2022/12/29 04:11:21;;;;;;;;;;;;;;;;;;5070371;28;19964;-80
2022/12/29 04:13:49;;;;;;;;;;;;;;;;;;5039752;28;19932;-81
2022/12/29 04:16:24;;;;;;;;;;;;;;;;;;5067511;28;19931;-81
2022/12/29 04:18:57;;;;;;;;;;;;;;;;;;5041090;28;20293;-81
2022/12/29 04:21:25;;;;;;;;;;;;;;;;;;5029660;28;19921;-81
2022/12/29 04:23:58;;;;;;;;;;;;;;;;;;5041585;28;19925;-81
2022/12/29 04:26:31;;;;;;;;;;;;;;;;;;5048486;28;19921;-81
2022/12/29 04:29:25;;;;;;;;;;;;;;;;;;5075772;28;19921;-82
2022/12/29 04:32:16;;;;;;;;;;;;;;;;;;5037074;28;19920;-81
2022/12/29 04:34:48;;;;;;;;;;;;;;;;;;5077845;28;19931;-81
2022/12/29 04:37:15;;;;;;;;;;;;;;;;;;5075663;28;19932;-81
2022/12/29 04:39:43;;;;;;;;;;;;;;;;;;5077362;28;20333;-81
2022/12/29 04:42:10;;;;;;;;;;;;;;;;;;5075627;28;19924;-81
2022/12/29 04:44:38;;;;;;;;;;;;;;;;;;5050528;28;19928;-81
2022/12/29 04:47:21;;;;;;;;;;;;;;;;;;5074478;28;19936;-81
2022/12/29 04:50:03;;;;;;;;;;;;;;;;;;5059807;28;19920;-82
2022/12/29 04:53:05;;;;;;;;;;;;;;;;;;5039488;28;19921;-80
2022/12/29 04:55:38;;;;;;;;;;;;;;;;;;5052600;28;19932;-81
2022/12/29 04:58:06;;;;;;;;;;;;;;;;;;5074187;28;19928;-81
2022/12/29 05:00:34;;;;;;;;;;;;;;;;;;5040722;28;19948;-80
2022/12/29 05:03:06;;;;;;;;;;;;;;;;;;5041841;28;19928;-80
2022/12/29 05:05:41;;;;;;;;;;;;;;;;;;5043380;28;20400;-80
2022/12/29 05:08:14;;;;;;;;;;;;;;;;;;5040336;28;19924;-81
2022/12/29 05:10:46;;;;;;;;;;;;;;;;;;5042749;28;19920;-81
2022/12/29 05:13:14;;;;;;;;;;;;;;;;;;5066301;28;20554;-81
2022/12/29 05:15:42;;;;;;;;;;;;;;;;;;5039447;28;19920;-80
2022/12/29 05:18:15;;;;;;;;;;;;;;;;;;5038464;28;19925;-81
2022/12/29 05:20:48;;;;;;;;;;;;;;;;;;5057659;28;20297;-81
2022/12/29 05:23:16;;;;;;;;;;;;;;;;;;5042149;28;19928;-81
2022/12/29 05:25:46;;;;;;;;;;;;;;;;;;5050655;28;20407;-81
2022/12/29 05:28:17;;;;;;;;;;;;;;;;;;5075491;28;19928;-81
2022/12/29 05:30:57;;;;;;;;;;;;;;;;;;5059568;28;19921;-81
2022/12/29 05:33:30;;;;;;;;;;;;;;;;;;5043783;28;20407;-80
2022/12/29 05:35:58;;;;;;;;;;;;;;;;;;5075206;28;19920;-80
2022/12/29 05:38:26;;;;;;;;;;;;;;;;;;5043121;28;19925;-80
2022/12/29 05:40:54;;;;;;;;;;;;;;;;;;5039307;28;19932;-80
2022/12/29 05:43:40;;;;;;;;;;;;;;;;;;5041363;28;19940;-81
2022/12/29 05:46:18;;;;;;;;;;;;;;;;;;5067642;28;20296;-80
2022/12/29 05:49:05;;;;;;;;;;;;;;;;;;5039810;28;19921;-80
2022/12/29 05:51:59;;;;;;;;;;;;;;;;;;5042433;28;19924;-81
2022/12/29 05:54:28;;;;;;;;;;;;;;;;;;5050141;28;20549;-81
2022/12/29 05:56:56;;;;;;;;;;;;;;;;;;5049668;28;20289;-81
2022/12/29 05:59:23;;;;;;;;;;;;;;;;;;5065773;28;19924;-81
2022/12/29 06:01:56;;;;;;;;;;;;;;;;;;5041546;28;19924;-81
2022/12/29 06:04:23;;;;;;;;;;;;;;;;;;5038792;28;20333;-81
2022/12/29 06:06:51;;;;;;;;;;;;;;;;;;5040396;28;19928;-81
2022/12/29 06:09:24;;;;;;;;;;;;;;;;;;5041120;28;19925;-80
2022/12/29 06:11:57;;;;;;;;;;;;;;;;;;5040725;28;19921;-81
2022/12/29 06:14:25;;;;;;;;;;;;;;;;;;5072991;28;19920;-82
2022/12/29 06:16:52;;;;;;;;;;;;;;;;;;5038330;28;19925;-81
2022/12/29 06:19:25;;;;;;;;;;;;;;;;;;5048119;28;19932;-81
2022/12/29 06:21:53;;;;;;;;;;;;;;;;;;5039207;28;20288;-80
2022/12/29 06:24:21;;;;;;;;;;;;;;;;;;5075522;28;20354;-80
2022/12/29 06:26:53;;;;;;;;;;;;;;;;;;5056257;28;19928;-81
2022/12/29 06:29:26;;;;;;;;;;;;;;;;;;5069802;28;20377;-81
2022/12/29 06:31:57;;;;;;;;;;;;;;;;;;5046765;28;19948;-81
2022/12/29 06:34:25;;;;;;;;;;;;;;;;;;5074392;28;19925;-80
2022/12/29 06:36:58;;;;;;;;;;;;;;;;;;5041678;28;20296;-80
2022/12/29 06:39:25;;;;;;;;;;;;;;;;;;5038175;28;19936;-81
2022/12/29 06:42:03;;;;;;;;;;;;;;;;;;5042142;28;20388;-81
2022/12/29 06:44:49;;;;;;;;;;;;;;;;;;5038662;28;20374;-80
2022/12/29 06:47:22;;;;;;;;;;;;;;;;;;5039773;28;20271;-81
2022/12/29 06:49:49;;;;;;;;;;;;;;;;;;5041834;28;19929;-81
2022/12/29 06:52:23;;;;;;;;;;;;;;;;;;5042567;28;19932;-80
2022/12/29 06:54:56;;;;;;;;;;;;;;;;;;5054369;28;19925;-80
2022/12/29 06:57:29;;;;;;;;;;;;;;;;;;5042437;28;19920;-79
2022/12/29 07:00:01;;;;;;;;;;;;;;;;;;5054055;28;19939;-80
2022/12/29 07:02:29;;;;;;;;;;;;;;;;;;5048267;28;19943;-80
2022/12/29 07:05:01;;;;;;;;;;;;;;;;;;5036132;28;19936;-80
2022/12/29 07:07:29;;;;;;;;;;;;;;;;;;5066740;28;19921;-79
2022/12/29 07:09:56;;;;;;;;;;;;;;;;;;5049432;28;19925;-81
2022/12/29 07:12:24;;;;;;;;;;;;;;;;;;5040655;28;20377;-81
2022/12/29 07:14:51;;;;;;;;;;;;;;;;;;5072147;28;20294;-80
2022/12/29 07:17:24;;;;;;;;;;;;;;;;;;5039572;28;19932;-80
2022/12/29 07:19:51;;;;;;;;;;;;;;;;;;5038062;28;20480;-80
2022/12/29 07:22:24;;;;;;;;;;;;;;;;;;5039816;28;19928;-82
2022/12/29 07:24:51;;;;;;;;;;;;;;;;;;5070740;28;19921;-81
2022/12/29 07:27:19;;;;;;;;;;;;;;;;;;5040376;28;20285;-82
2022/12/29 07:29:48;;;;;;;;;;;;;;;;;;5036146;28;20386;-81
2022/12/29 07:32:21;;;;;;;;;;;;;;;;;;5036228;28;20290;-81
2022/12/29 07:34:53;;;;;;;;;;;;;;;;;;5056609;28;19944;-81
2022/12/29 07:37:21;;;;;;;;;;;;;;;;;;5066524;28;20008;-82
2022/12/29 07:39:54;;;;;;;;;;;;;;;;;;5039983;28;19928;-81
2022/12/29 07:42:21;;;;;;;;;;;;;;;;;;5039474;28;19921;-82
2022/12/29 07:44:55;;;;;;;;;;;;;;;;;;5039874;28;19920;-82
2022/12/29 07:47:36;;;;;;;;;;;;;;;;;;5044611;28;20377;-81
2022/12/29 07:50:04;;;;;;;;;;;;;;;;;;5039393;28;19921;-81
2022/12/29 07:52:36;;;;;;;;;;;;;;;;;;5037380;28;19948;-80
2022/12/29 07:55:09;;;;;;;;;;;;;;;;;;5037756;28;19921;-80
2022/12/29 07:57:36;;;;;;;;;;;;;;;;;;5042930;28;20410;-82
2022/12/29 08:00:04;;;;;;;;;;;;;;;;;;5039125;28;20313;-80
2022/12/29 08:02:38;;;;;;;;;;;;;;;;;;5043246;28;19921;-81
2022/12/29 08:05:10;;;;;;;;;;;;;;;;;;5047402;28;19944;-79
2022/12/29 08:07:38;;;;;;;;;;;;;;;;;;5046043;28;20931;-79
2022/12/29 08:10:10;;;;;;;;;;;;;;;;;;5048724;28;19960;-79
2022/12/29 08:12:38;;;;;;;;;;;;;;;;;;5042893;28;20250;-80
2022/12/29 08:15:10;;;;;;;;;;;;;;;;;;5072544;28;19925;-80
2022/12/29 08:17:38;;;;;;;;;;;;;;;;;;5047406;28;19931;-80
2022/12/29 08:20:05;;;;;;;;;;;;;;;;;;5041861;28;19924;-80
2022/12/29 08:22:33;;;;;;;;;;;;;;;;;;5071393;28;19925;-81
2022/12/29 08:25:00;;;;;;;;;;;;;;;;;;5073366;28;19928;-81
2022/12/29 08:27:33;;;;;;;;;;;;;;;;;;5044987;28;19952;-80
2022/12/29 08:30:05;;;;;;;;;;;;;;;;;;5042451;28;19925;-79
2022/12/29 08:32:38;;;;;;;;;;;;;;;;;;5043037;28;19925;-79
2022/12/29 08:35:12;;;;;;;;;;;;;;;;;;5041181;28;19932;-79
2022/12/29 08:37:39;;;;;;;;;;;;;;;;;;5044045;28;19920;-80
2022/12/29 08:40:07;;;;;;;;;;;;;;;;;;5068983;28;19925;-80
2022/12/29 08:42:35;;;;;;;;;;;;;;;;;;5041103;28;19921;-80
2022/12/29 08:45:08;;;;;;;;;;;;;;;;;;5047245;28;19951;-79
2022/12/29 08:47:41;;;;;;;;;;;;;;;;;;5042209;28;20281;-79
2022/12/29 08:50:13;;;;;;;;;;;;;;;;;;5054276;28;19929;-79
2022/12/29 08:52:41;;;;;;;;;;;;;;;;;;5044992;28;19925;-79
2022/12/29 08:55:13;;;;;;;;;;;;;;;;;;5039340;28;19935;-80
2022/12/29 08:57:41;;;;;;;;;;;;;;;;;;5037884;28;19925;-79
2022/12/29 09:00:17;;;;;;;;;;;;;;;;;;5038526;28;19925;-79
2022/12/29 09:02:50;;;;;;;;;;;;;;;;;;5055949;28;19932;-79
2022/12/29 09:05:23;;;;;;;;;;;;;;;;;;5040228;28;19935;-80
2022/12/29 09:07:50;;;;;;;;;;;;;;;;;;5043613;28;19924;-79
2022/12/29 09:10:23;;;;;;;;;;;;;;;;;;5070686;28;19936;-80
2022/12/29 09:12:56;;;;;;;;;;;;;;;;;;5061502;28;19932;-80
2022/12/29 09:15:23;;;;;;;;;;;;;;;;;;5067563;28;19928;-80
2022/12/29 09:17:51;;;;;;;;;;;;;;;;;;5044780;28;19932;-80
2022/12/29 09:20:18;;;;;;;;;;;;;;;;;;5042320;28;19929;-79
2022/12/29 09:22:50;;;;;;;;;;;;;;;;;;5042227;28;19921;-79
2022/12/29 09:25:18;;;;;;;;;;;;;;;;;;5037222;28;19936;-79
2022/12/29 09:27:52;;;;;;;;;;;;;;;;;;5043577;28;20634;-80
2022/12/29 09:30:19;;;;;;;;;;;;;;;;;;5038077;28;20384;-79
2022/12/29 09:32:52;;;;;;;;;;;;;;;;;;5040978;28;19921;-79
2022/12/29 09:35:19;;;;;;;;;;;;;;;;;;5042970;28;20374;-79
2022/12/29 09:37:52;;;;;;;;;;;;;;;;;;5056967;28;19928;-79
2022/12/29 09:40:19;;;;;;;;;;;;;;;;;;5069533;28;20401;-79
2022/12/29 09:42:47;;;;;;;;;;;;;;;;;;5035968;28;19932;-80
2022/12/29 09:45:19;;;;;;;;;;;;;;;;;;5031546;28;19936;-80
2022/12/29 09:47:52;;;;;;;;;;;;;;;;;;5038237;28;20297;-79
2022/12/29 09:50:24;;;;;;;;;;;;;;;;;;5041307;28;19928;-79
2022/12/29 09:52:52;;;;;;;;;;;;;;;;;;5034559;28;19925;-79
2022/12/29 09:55:19;;;;;;;;;;;;;;;;;;5026797;28;19936;-79
2022/12/29 09:57:52;;;;;;;;;;;;;;;;;;5047183;28;19925;-80
2022/12/29 10:00:24;;;;;;;;;;;;;;;;;;5022400;28;20585;-80
2022/12/29 10:02:52;;;;;;;;;;;;;;;;;;5020548;28;19932;-80
2022/12/29 10:05:19;;;;;;;;;;;;;;;;;;5019591;28;19936;-81
2022/12/29 10:07:52;;;;;;;;;;;;;;;;;;5019087;28;19936;-80
2022/12/29 10:10:19;;;;;;;;;;;;;;;;;;5020222;28;19935;-80
2022/12/29 10:12:47;;;;;;;;;;;;;;;;;;5018519;28;20380;-79
2022/12/29 10:15:19;;;;;;;;;;;;;;;;;;5029834;28;19924;-79
2022/12/29 10:17:51;;;;;;;;;;;;;;;;;;5024026;28;19928;-80
2022/12/29 10:20:19;;;;;;;;;;;;;;;;;;5016335;28;19929;-79
2022/12/29 10:22:52;;;;;;;;;;;;;;;;;;5019344;28;19929;-80
2022/12/29 10:25:24;;;;;;;;;;;;;;;;;;5021475;28;19929;-78
2022/12/29 10:27:57;;;;;;;;;;;;;;;;;;5023838;28;19921;-78
2022/12/29 10:30:25;;;;;;;;;;;;;;;;;;5022064;28;19929;-79
2022/12/29 10:32:58;;;;;;;;;;;;;;;;;;5021603;28;20407;-80
2022/12/29 10:35:30;;;;;;;;;;;;;;;;;;5057825;28;19928;-80
2022/12/29 10:37:58;;;;;;;;;;;;;;;;;;5023410;28;20742;-79
2022/12/29 10:40:25;;;;;;;;;;;;;;;;;;5018706;28;19940;-79
2022/12/29 10:42:57;;;;;;;;;;;;;;;;;;5028023;28;19921;-79
2022/12/29 10:45:25;;;;;;;;;;;;;;;;;;5017406;28;19929;-80
2022/12/29 10:47:53;;;;;;;;;;;;;;;;;;5018436;28;19964;-79
2022/12/29 10:50:20;;;;;;;;;;;;;;;;;;5057127;28;19921;-79
2022/12/29 10:52:53;;;;;;;;;;;;;;;;;;5006473;28;19929;-80
2022/12/29 10:55:20;;;;;;;;;;;;;;;;;;5008077;28;19932;-80
2022/12/29 10:57:53;;;;;;;;;;;;;;;;;;5004167;28;20673;-79
2022/12/29 11:00:21;;;;;;;;;;;;;;;;;;5003454;28;19929;-80
2022/12/29 11:02:48;;;;;;;;;;;;;;;;;;5003231;28;19925;-80
2022/12/29 11:05:21;;;;;;;;;;;;;;;;;;5014867;28;19936;-79
2022/12/29 11:07:53;;;;;;;;;;;;;;;;;;5001828;28;19929;-82
2022/12/29 11:10:21;;;;;;;;;;;;;;;;;;5002788;28;20265;-80
2022/12/29 11:12:48;;;;;;;;;;;;;;;;;;5013411;28;19929;-82
2022/12/29 11:15:21;;;;;;;;;;;;;;;;;;4999570;28;21392;-80
2022/12/29 11:17:48;;;;;;;;;;;;;;;;;;5007983;28;19936;-81
2022/12/29 11:20:16;;;;;;;;;;;;;;;;;;5005796;28;19928;-81
2022/12/29 11:22:49;;;;;;;;;;;;;;;;;;5017013;28;19932;-82
2022/12/29 11:25:21;;;;;;;;;;;;;;;;;;5000539;28;19940;-81
2022/12/29 11:27:53;;;;;;;;;;;;;;;;;;4998253;28;19936;-81
2022/12/29 11:30:26;;;;;;;;;;;;;;;;;;4999433;28;20353;-81
2022/12/29 11:32:54;;;;;;;;;;;;;;;;;;5000867;28;19936;-80
2022/12/29 11:35:21;;;;;;;;;;;;;;;;;;5018574;28;19928;-80
2022/12/29 11:37:49;;;;;;;;;;;;;;;;;;5008641;28;19928;-80
2022/12/29 11:40:21;;;;;;;;;;;;;;;;;;5006692;28;19929;-81
2022/12/29 11:42:54;;;;;;;;;;;;;;;;;;5032017;28;19929;-79
2022/12/29 11:45:26;;;;;;;;;;;;;;;;;;5002511;28;20671;-81
2022/12/29 11:47:54;;;;;;;;;;;;;;;;;;5006539;28;19929;-80
2022/12/29 11:50:27;;;;;;;;;;;;;;;;;;5001818;28;20278;-81
2022/12/29 11:52:54;;;;;;;;;;;;;;;;;;5004861;28;20004;-80
2022/12/29 11:55:27;;;;;;;;;;;;;;;;;;4977068;28;20912;-81
2022/12/29 11:57:54;;;;;;;;;;;;;;;;;;5000865;28;19929;-80
2022/12/29 12:00:27;;;;;;;;;;;;;;;;;;5007761;28;19929;-80
2022/12/29 12:02:55;;;;;;;;;;;;;;;;;;5007257;28;19929;-81
2022/12/29 12:05:27;;;;;;;;;;;;;;;;;;5006573;28;19936;-81
2022/12/29 12:08:00;;;;;;;;;;;;;;;;;;5004667;28;19936;-80
2022/12/29 12:10:32;;;;;;;;;;;;;;;;;;5003672;28;20043;-80
2022/12/29 12:13:05;;;;;;;;;;;;;;;;;;5001557;28;19936;-81
2022/12/29 12:15:38;;;;;;;;;;;;;;;;;;5001971;28;19925;-80
2022/12/29 12:18:06;;;;;;;;;;;;;;;;;;5034350;28;20345;-79
2022/12/29 12:20:33;;;;;;;;;;;;;;;;;;5010166;28;20027;-80
2022/12/29 12:23:01;;;;;;;;;;;;;;;;;;5007905;28;19925;-80
2022/12/29 12:25:33;;;;;;;;;;;;;;;;;;5003880;28;19929;-80
2022/12/29 12:28:06;;;;;;;;;;;;;;;;;;5000559;28;19929;-80
2022/12/29 12:30:38;;;;;;;;;;;;;;;;;;5008213;28;19936;-80
2022/12/29 12:33:06;;;;;;;;;;;;;;;;;;5001675;28;19936;-80
2022/12/29 12:35:34;;;;;;;;;;;;;;;;;;5006553;28;19936;-80
2022/12/29 12:38:06;;;;;;;;;;;;;;;;;;5005998;28;20688;-80
2022/12/29 12:40:34;;;;;;;;;;;;;;;;;;5009323;28;20494;-80
2022/12/29 12:43:02;;;;;;;;;;;;;;;;;;5002868;28;20115;-81
2022/12/29 12:45:29;;;;;;;;;;;;;;;;;;5045491;28;19925;-80
2022/12/29 12:48:02;;;;;;;;;;;;;;;;;;5022269;28;19925;-79
2022/12/29 12:50:34;;;;;;;;;;;;;;;;;;5018495;28;19929;-79
2022/12/29 12:53:07;;;;;;;;;;;;;;;;;;5017950;28;19929;-79
2022/12/29 12:55:34;;;;;;;;;;;;;;;;;;5035378;28;20267;-79
2022/12/29 12:58:07;;;;;;;;;;;;;;;;;;5017556;28;19925;-80
2022/12/29 13:00:34;;;;;;;;;;;;;;;;;;5020646;28;19925;-79
2022/12/29 13:03:07;;;;;;;;;;;;;;;;;;5018165;28;19932;-80
2022/12/29 13:05:39;;;;;;;;;;;;;;;;;;5019043;28;19933;-80
2022/12/29 13:08:07;;;;;;;;;;;;;;;;;;5017235;28;19926;-77
2022/12/29 13:10:39;;;;;;;;;;;;;;;;;;5018378;28;19924;-79
2022/12/29 13:13:07;;;;;;;;;;;;;;;;;;5033633;28;19925;-79
2022/12/29 13:15:39;;;;;;;;;;;;;;;;;;5019675;28;20278;-80
2022/12/29 13:18:12;;;;;;;;;;;;;;;;;;5031322;28;19921;-79
2022/12/29 13:20:40;;;;;;;;;;;;;;;;;;5024231;28;19932;-79
2022/12/29 13:23:12;;;;;;;;;;;;;;;;;;5016728;28;19947;-79
2022/12/29 13:25:40;;;;;;;;;;;;;;;;;;5017912;28;19940;-78
2022/12/29 13:28:07;;;;;;;;;;;;;;;;;;5018253;28;19929;-78
2022/12/29 13:30:35;;;;;;;;;;;;;;;;;;5022445;28;19929;-79
2022/12/29 13:33:07;;;;;;;;;;;;;;;;;;5017793;28;19948;-78
2022/12/29 13:35:40;;;;;;;;;;;;;;;;;;5019385;28;19925;-79
2022/12/29 13:38:12;;;;;;;;;;;;;;;;;;5017072;28;20287;-80
2022/12/29 13:40:39;;;;;;;;;;;;;;;;;;5019450;28;19932;-79
2022/12/29 13:43:12;;;;;;;;;;;;;;;;;;5026127;28;19933;-80
2022/12/29 13:45:39;;;;;;;;;;;;;;;;;;5018880;28;19924;-79
2022/12/29 13:48:07;;;;;;;;;;;;;;;;;;5021053;28;19928;-79
2022/12/29 13:50:34;;;;;;;;;;;;;;;;;;5017024;28;19930;-79
2022/12/29 13:53:02;;;;;;;;;;;;;;;;;;5018818;28;20813;-80
2022/12/29 13:55:34;;;;;;;;;;;;;;;;;;5050196;28;19929;-80
2022/12/29 13:58:07;;;;;;;;;;;;;;;;;;5018166;28;20000;-80
2022/12/29 14:00:40;;;;;;;;;;;;;;;;;;5017364;28;19943;-79
2022/12/29 14:03:12;;;;;;;;;;;;;;;;;;5021689;28;20293;-79
2022/12/29 14:05:45;;;;;;;;;;;;;;;;;;5021205;28;19928;-79
2022/12/29 14:08:12;;;;;;;;;;;;;;;;;;5032252;28;19936;-79
2022/12/29 14:10:45;;;;;;;;;;;;;;;;;;5016209;28;19932;-80
2022/12/29 14:13:12;;;;;;;;;;;;;;;;;;5020238;28;20393;-79
2022/12/29 14:15:45;;;;;;;;;;;;;;;;;;5020270;28;19932;-79
2022/12/29 14:18:12;;;;;;;;;;;;;;;;;;5017085;28;20378;-80
2022/12/29 14:20:45;;;;;;;;;;;;;;;;;;5024939;28;19925;-79
2022/12/29 14:23:12;;;;;;;;;;;;;;;;;;5019448;28;19932;-80
2022/12/29 14:25:40;;;;;;;;;;;;;;;;;;5020559;28;19924;-80
2022/12/29 14:28:07;;;;;;;;;;;;;;;;;;5020552;28;20599;-80
2022/12/29 14:30:40;;;;;;;;;;;;;;;;;;5017085;28;19926;-79
2022/12/29 14:33:12;;;;;;;;;;;;;;;;;;5018092;28;19921;-79
2022/12/29 14:35:45;;;;;;;;;;;;;;;;;;5047863;28;19947;-79
2022/12/29 14:38:13;;;;;;;;;;;;;;;;;;5013445;28;19932;-79
2022/12/29 14:40:40;;;;;;;;;;;;;;;;;;5011461;28;19932;-80
2022/12/29 14:43:13;;;;;;;;;;;;;;;;;;5020319;28;20297;-78
2022/12/29 14:45:45;;;;;;;;;;;;;;;;;;5019303;28;19932;-79
2022/12/29 14:48:13;;;;;;;;;;;;;;;;;;5032650;28;19928;-79
2022/12/29 14:50:45;;;;;;;;;;;;;;;;;;5019672;28;20285;-80
2022/12/29 14:53:18;;;;;;;;;;;;;;;;;;5020175;28;19933;-81
2022/12/29 14:55:46;;;;;;;;;;;;;;;;;;5017683;28;20577;-79
2022/12/29 14:58:13;;;;;;;;;;;;;;;;;;5016005;28;20646;-79
2022/12/29 15:00:46;;;;;;;;;;;;;;;;;;5029891;28;20350;-79
2022/12/29 15:03:13;;;;;;;;;;;;;;;;;;5021710;28;19921;-78
2022/12/29 15:05:41;;;;;;;;;;;;;;;;;;5017499;28;19928;-79
2022/12/29 15:08:13;;;;;;;;;;;;;;;;;;5017246;28;19921;-79
2022/12/29 15:10:46;;;;;;;;;;;;;;;;;;5020791;28;19925;-79
2022/12/29 15:13:13;;;;;;;;;;;;;;;;;;5019876;28;19929;-80
2022/12/29 15:15:46;;;;;;;;;;;;;;;;;;5016332;28;19925;-79
2022/12/29 15:18:13;;;;;;;;;;;;;;;;;;5032985;28;20243;-80
2022/12/29 15:20:41;;;;;;;;;;;;;;;;;;5033035;28;19928;-79
2022/12/29 15:23:09;;;;;;;;;;;;;;;;;;5016108;28;19929;-79
2022/12/29 15:25:41;;;;;;;;;;;;;;;;;;5017616;28;19928;-80
2022/12/29 15:28:09;;;;;;;;;;;;;;;;;;5045143;28;19929;-79
2022/12/29 15:30:36;;;;;;;;;;;;;;;;;;5016109;28;19928;-78
2022/12/29 15:33:10;;;;;;;;;;;;;;;;;;5020515;28;19925;-79
2022/12/29 15:35:43;;;;;;;;;;;;;;;;;;5022646;28;20397;-78
2022/12/29 15:38:11;;;;;;;;;;;;;;;;;;5015410;28;19925;-79
2022/12/29 15:40:43;;;;;;;;;;;;;;;;;;5014819;28;19925;-79
2022/12/29 15:43:16;;;;;;;;;;;;;;;;;;5018562;28;20263;-79
2022/12/29 15:45:48;;;;;;;;;;;;;;;;;;5021846;28;20366;-78
2022/12/29 15:48:21;;;;;;;;;;;;;;;;;;5015660;28;20317;-78
2022/12/29 15:50:54;;;;;;;;;;;;;;;;;;5017442;28;19925;-78
2022/12/29 15:53:24;;;;;;;;;;;;;;;;;;5048063;28;19939;-78
2022/12/29 15:55:56;;;;;;;;;;;;;;;;;;5029750;28;19939;-79
2022/12/29 15:58:24;;;;;;;;;;;;;;;;;;5017704;28;19940;-79
2022/12/29 16:00:57;;;;;;;;;;;;;;;;;;5017036;28;19932;-78
2022/12/29 16:03:30;;;;;;;;;;;;;;;;;;5020397;28;19932;-79
2022/12/29 16:06:02;;;;;;;;;;;;;;;;;;5015024;28;19928;-79
2022/12/29 16:08:36;;;;;;;;;;;;;;;;;;5002644;28;19929;-78
2022/12/29 16:11:04;;;;;;;;;;;;;;;;;;5003359;28;19929;-78
2022/12/29 16:13:31;;;;;;;;;;;;;;;;;;5000622;28;19928;-78
2022/12/29 16:16:04;;;;;;;;;;;;;;;;;;5002639;28;19929;-78
2022/12/29 16:18:36;;;;;;;;;;;;;;;;;;5007568;28;19925;-79
2022/12/29 16:21:09;;;;;;;;;;;;;;;;;;5003666;28;19929;-78
2022/12/29 16:23:36;;;;;;;;;;;;;;;;;;5000501;28;19952;-78
2022/12/29 16:26:07;;;;;;;;;;;;;;;;;;5001765;28;19952;-78
2022/12/29 16:28:41;;;;;;;;;;;;;;;;;;5005898;28;19929;-79
2022/12/29 16:31:09;;;;;;;;;;;;;;;;;;5006942;28;20631;-78
2022/12/29 16:33:37;;;;;;;;;;;;;;;;;;5009093;28;19995;-78
2022/12/29 16:36:04;;;;;;;;;;;;;;;;;;5000282;28;19929;-78
2022/12/29 16:38:37;;;;;;;;;;;;;;;;;;5001291;28;19936;-79
2022/12/29 16:41:04;;;;;;;;;;;;;;;;;;5002767;28;19951;-78
2022/12/29 16:43:33;;;;;;;;;;;;;;;;;;5004650;28;19929;-78
2022/12/29 16:46:05;;;;;;;;;;;;;;;;;;4999279;28;20373;-78
2022/12/29 16:48:33;;;;;;;;;;;;;;;;;;4999648;28;19929;-78
2022/12/29 16:51:06;;;;;;;;;;;;;;;;;;5006876;28;19929;-78
2022/12/29 16:53:33;;;;;;;;;;;;;;;;;;5002239;28;20826;-79
2022/12/29 16:56:06;;;;;;;;;;;;;;;;;;5030036;28;19925;-79
2022/12/29 16:58:35;;;;;;;;;;;;;;;;;;5000954;28;19932;-78
2022/12/29 17:01:18;;;;;;;;;;;;;;;;;;5003117;28;19929;-78
2022/12/29 17:03:51;;;;;;;;;;;;;;;;;;5002163;28;19929;-78
2022/12/29 17:06:23;;;;;;;;;;;;;;;;;;4998804;28;19925;-78
2022/12/29 17:08:57;;;;;;;;;;;;;;;;;;5026656;28;21742;-78
2022/12/29 17:14:19;;;;;;;;;;;;;;;;;;5001391;28;19929;-79
2022/12/29 17:16:52;;;;;;;;;;;;;;;;;;4998979;28;19925;-78
2022/12/29 17:19:24;;;;;;;;;;;;;;;;;;5002483;28;19935;-78
2022/12/29 17:21:57;;;;;;;;;;;;;;;;;;5006249;28;19940;-78
2022/12/29 17:24:24;;;;;;;;;;;;;;;;;;5006705;28;19929;-78
2022/12/29 17:26:52;;;;;;;;;;;;;;;;;;5005796;28;19929;-79
2022/12/29 17:29:24;;;;;;;;;;;;;;;;;;5003763;28;20721;-80
2022/12/29 17:31:59;;;;;;;;;;;;;;;;;;5007001;28;20757;-81
2022/12/29 17:34:32;;;;;;;;;;;;;;;;;;5001400;28;19956;-80
2022/12/29 17:36:59;;;;;;;;;;;;;;;;;;5003391;28;19929;-80
2022/12/29 17:39:32;;;;;;;;;;;;;;;;;;5007071;28;20386;-79
2022/12/29 17:42:00;;;;;;;;;;;;;;;;;;5003683;28;21489;-80
2022/12/29 17:44:27;;;;;;;;;;;;;;;;;;5004550;28;19940;-80
2022/12/29 17:47:00;;;;;;;;;;;;;;;;;;5006840;28;19929;-80